Portada
METAR-TAF:

METAR-TAF

Aeroports :

Phrae, Tailàndia

latitud: 18-10N, longitud: 100-10E, altitud: 161 m

Observació

L'informe es va fer fa 59 minuts, a les 01:00 UTC
Vent 7 kt del Sud-Oest, variant entre Sud/Sud-Oest i Oest
Temperatura 28°C
Humitat 79%
Pressió 1010 hPa
Visibilitat: 8000 m

METAR: VTCP 240100Z 23007KT 200V260 8000 NSC 28/24 Q1010 NOSIG

Hora: 08:59 (01:59 UTC)

Pronòstic

L'informe es va fer fa 2 hores i 59 minuts, a les 23:00 UTC
Pronòstic vàlid del 24 a les 00 UTC al 24 a les 24 UTC
Vent 5 kt del Oest/Sud-Oest
Visibilitat 10 km o més
Escasses núvols a una alçada de 3000 ft
Temporalment
l' 24 a les 08 UTC al 24 a les 15 UTC
Vent 15 kt amb direcció variable amb ràfegues de 25 kt
Visibilitat: 5000 m
Escasses núvols a una alçada de 2500 ft, Cumulonimbus.
Cel ennuvolat a una alçada de 3000 ft
tempesta, pluja

TAF: VTCP 232300Z 2400/2424 24005KT 9999 FEW030 TEMPO 2408/2415 VRB15G25KT 5000 TSRA FEW025CB BKN030

Observacions i pronòstics meteorològics de més de 4000 aeroports (METAR i TAF).

Les estacions disponibles són els punts grocs i vermells al mapa.

Posi el ratolí al punt desitjat per veure el nom de l'estació.

Feu clic per veure les observacions i els pronòstics meteorològics.

Per canviar el mapa: feu clic els botons verds amb una creu de color negre per apropar; al botó verd amb un guió per allunyar la imatge; o en les fletxes verdes per a mapes adjacents.


METAR-TAF: